Aérodrome :
LOGIN :

S'inscrire | Disclaimer

   EN    FR    IT 

 










Légende :    VFR   VFR Marginal   IFR   IFR Intensif   IFR Très Intensif
Visi : 
Plafond : 
>= 8 km
>= 3000ft
5 à 8 km
1000 à 3000 ft
1500m à 5 km
500 à 1000 ft
800 à 1500m
200 à 500 ft
< 800m
< 200 ft
Symboles :   Orages  Brouillard  Fortes neiges  Fortes précipitations  Vent > 20 kt
SIGMETs :   Divers  Orages  Givrage  Turbulence  Onde Orograph.  Cendres Volcan.






- Altitude de l'aérodrome : 141 ft
- Code IATA : SKS


EKSP - Srydstrup Vojens

DERNIER METAR :
  • 281850Z 31008KT CAVOK 12/06 Q1031 RMK FEW200

METARs EXPIRÉS :
  • 281820Z 31009KT CAVOK 14/06 Q1031
  • 281750Z 30009KT 9999 FEW040 14/06 Q1031
  • 281720Z 31010KT 280V360 9999 FEW040 15/06 Q1031
  • 281650Z 31011KT 270V330 9999 FEW042 15/06 Q1031
  • 281620Z 31009KT 9999 FEW042 16/07 Q1031

TAF TAF EKSP
Valide du 28 à 18h jusqu'au 29 à 18h UTC


281716Z 2818/2918 33008KT 9999 FEW040
BECMG 2820/2822 VRB03KT
PROB40
TEMPO 2902/2905 0800 BCFG
BECMG 2910/2912 06006KT



MET'MAP, la Météo Aéronautique d'un coup d'oeil ! - Copyright ORBIFLY Décembre 2007 - Disclaimer

ORBIFLY MET'MAP TEAM :

Programmation & Développement : Alexandra Zaïnal
Sur une idée originale de : Baudouin d'Aumeries
Assistance à la programmation : Marc-Olivier Méhu
Soutien technique & logistique : Manuel Goepfert

Contact : metmap@orbifly.com




SOURCES & CREDITS :

   NOAA